Time;durP1;ratioP1;P1;durP2;ratioP2;P2;SDS_P1;SDS_P2;PMS_P1;PMS_P2;Temp;Humidity;BMP_temperature;BMP_pressure;BME280_temperature;BME280_humidity;BME280_pressure;Samples;Min_cycle;Max_cycle;Signal;HPM_P1;HPM_P2
2022/11/06 00:00:17;;;;;;;12.02;5.15;;;;;;;;;;5016533;28;20568;-63
2022/11/06 00:02:43;;;;;;;12.82;6.00;;;;;;;;;;4995867;28;20310;-63
2022/11/06 00:07:52;;;;;;;9.48;5.10;;;;;;;;;;5010229;28;20342;-63
2022/11/06 00:10:17;;;;;;;10.68;5.05;;;;;;;;;;5013565;28;20242;-62
2022/11/06 00:12:42;;;;;;;9.90;5.07;;;;;;;;;;5017510;28;20204;-62
2022/11/06 00:15:08;;;;;;;10.15;4.95;;;;;;;;;;5016434;28;20212;-63
2022/11/06 00:17:33;;;;;;;9.75;4.95;;;;;;;;;;5016458;28;20301;-63
2022/11/06 00:19:58;;;;;;;10.88;4.72;;;;;;;;;;5016724;28;20227;-63
2022/11/06 00:22:24;;;;;;;10.73;4.82;;;;;;;;;;5016051;28;20695;-63
2022/11/06 00:24:49;;;;;;;8.23;4.47;;;;;;;;;;5014394;28;20223;-62
2022/11/06 00:27:14;;;;;;;12.20;4.90;;;;;;;;;;5010052;28;20703;-62
2022/11/06 00:29:40;;;;;;;10.20;4.50;;;;;;;;;;5010902;28;20269;-62
2022/11/06 00:32:05;;;;;;;10.10;4.97;;;;;;;;;;5010735;28;20571;-63
2022/11/06 00:34:30;;;;;;;11.27;4.85;;;;;;;;;;5016741;28;20246;-62
2022/11/06 00:36:56;;;;;;;11.00;4.50;;;;;;;;;;5016563;28;20216;-62
2022/11/06 00:39:21;;;;;;;9.88;4.22;;;;;;;;;;5016470;28;20212;-62
2022/11/06 00:41:46;;;;;;;8.75;4.57;;;;;;;;;;5017349;28;20216;-62
2022/11/06 00:44:11;;;;;;;9.90;4.40;;;;;;;;;;5016680;28;20674;-62
2022/11/06 00:46:37;;;;;;;11.63;4.22;;;;;;;;;;5015968;28;20293;-63
2022/11/06 00:49:02;;;;;;;11.50;4.65;;;;;;;;;;5009821;28;20222;-62
2022/11/06 00:51:28;;;;;;;10.32;4.38;;;;;;;;;;5009553;28;20306;-62
2022/11/06 00:53:54;;;;;;;9.90;4.50;;;;;;;;;;5009141;28;20243;-63
2022/11/06 00:56:19;;;;;;;8.52;4.30;;;;;;;;;;5016096;28;20584;-62
2022/11/06 00:58:45;;;;;;;10.98;3.90;;;;;;;;;;5016222;28;20322;-63
2022/11/06 01:01:11;;;;;;;10.48;4.20;;;;;;;;;;5015336;28;20333;-63
2022/11/06 01:03:37;;;;;;;6.97;3.97;;;;;;;;;;5016245;28;20250;-62
2022/11/06 01:06:06;;;;;;;12.98;4.22;;;;;;;;;;5016528;28;20628;-63
2022/11/06 01:08:32;;;;;;;11.65;4.05;;;;;;;;;;5015798;28;20234;-63
2022/11/06 01:10:57;;;;;;;7.13;3.70;;;;;;;;;;5011912;28;20596;-62
2022/11/06 01:13:22;;;;;;;11.98;4.13;;;;;;;;;;5008339;28;20252;-63
2022/11/06 01:15:48;;;;;;;7.85;3.75;;;;;;;;;;5009411;28;20224;-62
2022/11/06 01:18:13;;;;;;;8.65;4.15;;;;;;;;;;5013098;28;20223;-63
2022/11/06 01:20:38;;;;;;;9.60;4.05;;;;;;;;;;5021629;28;20301;-62
2022/11/06 01:23:03;;;;;;;11.43;3.60;;;;;;;;;;5027787;28;20319;-63
2022/11/06 01:25:28;;;;;;;6.65;4.03;;;;;;;;;;5035268;28;20682;-62
2022/11/06 01:27:54;;;;;;;8.23;4.07;;;;;;;;;;5035008;28;20318;-62
2022/11/06 01:30:19;;;;;;;12.52;3.95;;;;;;;;;;5035311;28;20218;-62
2022/11/06 01:32:44;;;;;;;10.90;3.90;;;;;;;;;;5035696;28;20216;-63
2022/11/06 01:35:09;;;;;;;11.05;4.00;;;;;;;;;;5034921;28;20220;-63
2022/11/06 01:37:35;;;;;;;9.40;4.05;;;;;;;;;;5035694;28;20666;-62
2022/11/06 01:40:00;;;;;;;7.55;3.38;;;;;;;;;;5035766;28;20295;-63
2022/11/06 01:42:25;;;;;;;11.10;3.60;;;;;;;;;;5034968;28;20219;-63
2022/11/06 01:45:04;;;;;;;9.57;3.83;;;;;;;;;;5035871;28;20235;-63
2022/11/06 01:47:29;;;;;;;10.50;3.95;;;;;;;;;;5034857;28;20235;-63
2022/11/06 01:49:56;;;;;;;9.98;3.92;;;;;;;;;;5034897;28;20222;-62
2022/11/06 01:52:21;;;;;;;7.80;3.42;;;;;;;;;;5034975;28;20230;-62
2022/11/06 01:54:47;;;;;;;8.15;3.40;;;;;;;;;;5035587;28;20208;-62
2022/11/06 01:57:12;;;;;;;12.90;3.65;;;;;;;;;;5034065;28;20223;-62
2022/11/06 01:59:38;;;;;;;9.85;3.85;;;;;;;;;;5035324;28;20596;-63
2022/11/06 02:02:04;;;;;;;14.73;3.60;;;;;;;;;;5034751;28;20270;-62
2022/11/06 02:04:31;;;;;;;10.02;3.20;;;;;;;;;;5016842;28;20220;-63
2022/11/06 02:06:56;;;;;;;9.75;3.35;;;;;;;;;;5017607;28;20286;-62
2022/11/06 02:09:21;;;;;;;7.97;3.13;;;;;;;;;;5034768;28;20648;-62
2022/11/06 02:11:53;;;;;;;10.95;3.22;;;;;;;;;;5016672;28;20752;-63
2022/11/06 02:14:22;;;;;;;10.95;3.40;;;;;;;;;;5034394;28;20594;-63
2022/11/06 02:16:51;;;;;;;8.13;3.38;;;;;;;;;;5016489;28;20212;-63
2022/11/06 02:19:35;;;;;;;7.90;3.28;;;;;;;;;;5034319;28;20679;-63
2022/11/06 02:22:10;;;;;;;10.63;3.35;;;;;;;;;;5033349;28;20219;-63
2022/11/06 02:24:41;;;;;;;9.05;3.08;;;;;;;;;;5034370;28;20298;-62
2022/11/06 02:27:09;;;;;;;7.40;3.03;;;;;;;;;;5016630;28;20681;-62
2022/11/06 02:29:35;;;;;;;7.22;2.90;;;;;;;;;;5029979;28;20226;-63
2022/11/06 02:32:02;;;;;;;8.77;2.90;;;;;;;;;;5042043;28;20208;-63
2022/11/06 02:34:27;;;;;;;9.13;2.90;;;;;;;;;;5052318;28;20207;-62
2022/11/06 02:36:55;;;;;;;7.38;3.28;;;;;;;;;;5036676;28;20233;-62
2022/11/06 02:39:21;;;;;;;9.05;2.63;;;;;;;;;;5044337;28;20196;-63
2022/11/06 02:41:46;;;;;;;10.55;2.90;;;;;;;;;;4997414;28;20562;-62
2022/11/06 02:44:12;;;;;;;6.95;2.80;;;;;;;;;;4996610;28;20263;-62
2022/11/06 02:46:40;;;;;;;8.57;2.65;;;;;;;;;;4996518;28;20563;-63
2022/11/06 02:49:06;;;;;;;11.13;3.47;;;;;;;;;;4996127;28;20216;-63
2022/11/06 02:51:32;;;;;;;8.35;2.95;;;;;;;;;;5030093;28;20224;-63
2022/11/06 02:53:57;;;;;;;11.88;2.70;;;;;;;;;;5013930;28;20212;-63
2022/11/06 02:56:24;;;;;;;9.27;2.90;;;;;;;;;;5014116;28;20216;-62
2022/11/06 02:58:52;;;;;;;10.15;2.90;;;;;;;;;;5013539;28;20729;-63
2022/11/06 03:01:19;;;;;;;9.60;2.80;;;;;;;;;;5014168;28;20278;-63
2022/11/06 03:03:47;;;;;;;7.72;2.58;;;;;;;;;;5014334;28;20208;-63
2022/11/06 03:06:18;;;;;;;9.50;3.00;;;;;;;;;;5012153;28;20227;-63
2022/11/06 03:08:43;;;;;;;9.00;2.90;;;;;;;;;;5014269;28;20315;-63
2022/11/06 03:11:12;;;;;;;8.35;2.83;;;;;;;;;;5013989;28;20303;-63
2022/11/06 03:13:41;;;;;;;8.93;2.42;;;;;;;;;;5013694;28;20543;-62
2022/11/06 03:16:08;;;;;;;7.78;2.60;;;;;;;;;;5012633;28;20216;-63
2022/11/06 03:18:35;;;;;;;12.35;2.78;;;;;;;;;;5012957;28;20227;-63
2022/11/06 03:21:00;;;;;;;8.40;2.50;;;;;;;;;;5013404;28;20278;-63
2022/11/06 03:23:33;;;;;;;10.40;2.50;;;;;;;;;;5012552;28;20687;-63
2022/11/06 03:26:10;;;;;;;9.65;2.47;;;;;;;;;;5013059;28;20371;-63
2022/11/06 03:28:37;;;;;;;7.55;2.58;;;;;;;;;;5017485;28;20258;-62
2022/11/06 03:31:04;;;;;;;5.75;2.08;;;;;;;;;;5033540;28;20220;-63
2022/11/06 03:33:32;;;;;;;9.02;2.33;;;;;;;;;;5008802;28;20595;-62
2022/11/06 03:36:09;;;;;;;10.60;2.20;;;;;;;;;;5024059;28;20212;-63
2022/11/06 03:38:39;;;;;;;8.90;2.50;;;;;;;;;;5010837;28;20208;-62
2022/11/06 03:41:06;;;;;;;6.93;2.03;;;;;;;;;;4992449;28;20646;-63
2022/11/06 03:43:34;;;;;;;8.40;2.45;;;;;;;;;;5012955;28;20212;-62
2022/11/06 03:45:59;;;;;;;7.50;1.90;;;;;;;;;;5029098;28;20216;-62
2022/11/06 03:48:28;;;;;;;10.63;2.50;;;;;;;;;;5012208;28;20221;-63
2022/11/06 03:50:55;;;;;;;7.90;2.47;;;;;;;;;;5013659;28;20212;-62
2022/11/06 03:53:22;;;;;;;9.48;2.30;;;;;;;;;;5011884;28;20212;-62
2022/11/06 03:55:49;;;;;;;6.13;1.90;;;;;;;;;;5011634;28;20223;-63
2022/11/06 03:58:16;;;;;;;7.22;2.03;;;;;;;;;;5011547;28;20255;-63
2022/11/06 04:00:42;;;;;;;7.90;2.10;;;;;;;;;;5012561;28;20220;-63
2022/11/06 04:03:15;;;;;;;7.65;2.30;;;;;;;;;;5011138;28;20221;-63
2022/11/06 04:05:41;;;;;;;9.57;2.40;;;;;;;;;;5012110;28;20295;-62
2022/11/06 04:16:18;;;;;;;6.30;1.98;;;;;;;;;;5031791;28;20230;-62
2022/11/06 04:18:43;;;;;;;5.88;2.00;;;;;;;;;;5031737;28;20606;-63
2022/11/06 04:21:24;;;;;;;7.60;2.35;;;;;;;;;;5032260;28;20215;-62
2022/11/06 04:26:34;;;;;;;7.60;1.90;;;;;;;;;;5032298;28;20577;-63
2022/11/06 04:26:35;;;;;;;8.35;2.00;;;;;;;;;;5032324;28;20565;-63
2022/11/06 04:29:12;;;;;;;9.07;1.98;;;;;;;;;;5030970;28;20707;-62
2022/11/06 04:31:55;;;;;;;7.82;2.17;;;;;;;;;;5025115;28;20222;-62
2022/11/06 04:34:26;;;;;;;8.50;2.33;;;;;;;;;;5020084;28;20314;-62
2022/11/06 04:37:06;;;;;;;8.90;2.05;;;;;;;;;;5021259;28;20213;-62
2022/11/06 04:39:36;;;;;;;6.88;1.75;;;;;;;;;;4999564;28;20216;-62
2022/11/06 04:42:04;;;;;;;10.52;2.60;;;;;;;;;;4999541;28;20240;-62
2022/11/06 04:44:32;;;;;;;7.50;1.88;;;;;;;;;;4993714;28;20321;-62
2022/11/06 04:46:58;;;;;;;6.90;1.95;;;;;;;;;;4991240;28;20540;-62
2022/11/06 04:49:23;;;;;;;10.27;2.50;;;;;;;;;;4993693;28;20220;-62
2022/11/06 04:51:49;;;;;;;6.38;1.85;;;;;;;;;;4999162;28;20234;-62
2022/11/06 04:54:14;;;;;;;7.70;2.13;;;;;;;;;;5015714;28;20216;-63
2022/11/06 04:56:39;;;;;;;9.23;2.13;;;;;;;;;;5001713;28;20236;-62
2022/11/06 04:59:04;;;;;;;8.63;1.95;;;;;;;;;;4999886;28;20246;-62
2022/11/06 05:01:30;;;;;;;7.78;1.92;;;;;;;;;;5016910;28;20224;-62
2022/11/06 05:03:55;;;;;;;6.55;1.80;;;;;;;;;;4998332;28;20627;-62
2022/11/06 05:06:20;;;;;;;8.88;1.80;;;;;;;;;;4992719;28;20451;-62
2022/11/06 05:08:46;;;;;;;9.38;2.50;;;;;;;;;;4993498;28;20303;-62
2022/11/06 05:11:11;;;;;;;6.45;1.98;;;;;;;;;;4996127;28;20311;-62
2022/11/06 05:13:37;;;;;;;9.93;1.90;;;;;;;;;;5001154;28;20279;-62
2022/11/06 05:16:02;;;;;;;9.18;2.10;;;;;;;;;;5000431;28;20238;-62
2022/11/06 05:18:28;;;;;;;8.18;1.70;;;;;;;;;;5001626;28;20224;-62
2022/11/06 05:23:37;;;;;;;10.85;3.00;;;;;;;;;;5014039;28;20588;-62
2022/11/06 05:26:03;;;;;;;9.75;1.88;;;;;;;;;;5019183;28;20682;-62
2022/11/06 05:28:28;;;;;;;7.60;2.13;;;;;;;;;;5013367;28;20228;-62
2022/11/06 05:30:53;;;;;;;12.07;2.35;;;;;;;;;;5013371;28;20220;-62
2022/11/06 05:33:19;;;;;;;9.90;1.92;;;;;;;;;;5014138;28;20222;-62
2022/11/06 05:35:44;;;;;;;4.40;1.85;;;;;;;;;;5020248;28;20216;-62
2022/11/06 05:38:09;;;;;;;8.20;1.92;;;;;;;;;;5020481;28;20226;-63
2022/11/06 05:40:34;;;;;;;9.60;2.40;;;;;;;;;;5014656;28;20216;-62
2022/11/06 05:43:00;;;;;;;6.95;1.73;;;;;;;;;;5001657;28;20209;-62
2022/11/06 05:45:25;;;;;;;7.28;1.80;;;;;;;;;;5000879;28;20234;-62
2022/11/06 05:47:50;;;;;;;8.75;2.03;;;;;;;;;;5000437;28;20231;-62
2022/11/06 05:50:16;;;;;;;9.18;2.13;;;;;;;;;;4994564;28;20753;-62
2022/11/06 05:52:41;;;;;;;8.65;2.00;;;;;;;;;;4992311;28;20217;-62
2022/11/06 05:55:06;;;;;;;7.05;2.00;;;;;;;;;;4974408;28;20216;-62
2022/11/06 05:57:32;;;;;;;8.02;1.80;;;;;;;;;;4999557;28;20213;-62
2022/11/06 05:59:57;;;;;;;4.60;1.90;;;;;;;;;;5001035;28;20658;-62
2022/11/06 06:02:22;;;;;;;9.15;2.10;;;;;;;;;;4999668;28;20693;-62
2022/11/06 06:04:47;;;;;;;6.45;2.10;;;;;;;;;;5001287;28;20216;-62
2022/11/06 06:07:13;;;;;;;6.05;2.03;;;;;;;;;;5002238;28;20232;-62
2022/11/06 06:09:38;;;;;;;5.32;1.63;;;;;;;;;;5003993;28;20614;-62
2022/11/06 06:12:03;;;;;;;6.55;1.88;;;;;;;;;;5000207;28;20224;-62
2022/11/06 06:14:29;;;;;;;7.45;1.88;;;;;;;;;;4995438;28;20220;-62
2022/11/06 06:16:54;;;;;;;6.93;1.95;;;;;;;;;;4995498;28;20238;-62
2022/11/06 06:19:19;;;;;;;6.00;1.90;;;;;;;;;;4999537;28;20793;-62
2022/11/06 06:21:44;;;;;;;7.88;1.70;;;;;;;;;;5003834;28;20216;-62
2022/11/06 06:24:10;;;;;;;7.13;1.75;;;;;;;;;;5002575;28;20683;-62
2022/11/06 06:26:35;;;;;;;8.55;2.40;;;;;;;;;;5004242;28;20259;-62
2022/11/06 06:29:01;;;;;;;7.03;1.85;;;;;;;;;;4985886;28;20662;-62
2022/11/06 06:31:26;;;;;;;7.30;1.88;;;;;;;;;;5003279;28;20216;-62
2022/11/06 06:33:52;;;;;;;7.75;1.80;;;;;;;;;;5002552;28;20204;-62
2022/11/06 06:36:17;;;;;;;7.93;2.03;;;;;;;;;;4967203;28;20418;-62
2022/11/06 06:38:42;;;;;;;8.52;1.80;;;;;;;;;;4995236;28;20217;-62
2022/11/06 06:41:08;;;;;;;6.72;1.80;;;;;;;;;;4996314;28;20579;-62
2022/11/06 06:43:33;;;;;;;7.32;2.10;;;;;;;;;;5003914;28;20217;-63
2022/11/06 06:45:59;;;;;;;8.20;1.98;;;;;;;;;;5003172;28;20224;-62
2022/11/06 06:48:24;;;;;;;8.38;2.00;;;;;;;;;;5003059;28;20298;-63
2022/11/06 06:50:49;;;;;;;6.47;1.80;;;;;;;;;;5004780;28;20212;-62
2022/11/06 06:53:14;;;;;;;9.23;3.03;;;;;;;;;;5004125;28;20228;-62
2022/11/06 06:55:40;;;;;;;7.10;2.15;;;;;;;;;;5004740;28;20698;-62
2022/11/06 06:58:06;;;;;;;12.68;2.58;;;;;;;;;;4994346;28;20224;-62
2022/11/06 07:00:32;;;;;;;5.68;2.22;;;;;;;;;;4995133;28;20232;-62
2022/11/06 07:02:57;;;;;;;6.80;1.80;;;;;;;;;;4995931;28;20227;-62
2022/11/06 07:05:22;;;;;;;9.43;2.80;;;;;;;;;;5000683;28;20224;-62
2022/11/06 07:07:48;;;;;;;9.48;2.22;;;;;;;;;;5003481;28;20307;-62
2022/11/06 07:10:13;;;;;;;7.60;2.15;;;;;;;;;;5002711;28;20212;-62
2022/11/06 07:12:38;;;;;;;7.10;2.00;;;;;;;;;;5002633;28;20208;-62
2022/11/06 07:15:04;;;;;;;6.47;1.95;;;;;;;;;;5002349;28;20208;-63
2022/11/06 07:17:29;;;;;;;8.38;2.10;;;;;;;;;;5003694;28;20224;-62
2022/11/06 07:19:55;;;;;;;7.75;2.00;;;;;;;;;;4999245;28;20209;-62
2022/11/06 07:22:20;;;;;;;5.25;2.17;;;;;;;;;;4994987;28;20216;-62
2022/11/06 07:24:45;;;;;;;7.75;2.40;;;;;;;;;;5001221;28;20208;-62
2022/11/06 07:27:10;;;;;;;6.30;2.17;;;;;;;;;;5016543;28;20216;-62
2022/11/06 07:29:36;;;;;;;8.10;2.10;;;;;;;;;;5024081;28;20572;-61
2022/11/06 07:32:01;;;;;;;8.48;2.25;;;;;;;;;;5029166;28;20212;-62
2022/11/06 07:34:26;;;;;;;6.63;1.73;;;;;;;;;;5029053;28;20208;-62
2022/11/06 07:36:51;;;;;;;4.70;2.00;;;;;;;;;;5029665;28;20271;-61
2022/11/06 07:39:17;;;;;;;6.72;1.90;;;;;;;;;;5023885;28;20204;-61
2022/11/06 07:41:42;;;;;;;4.97;1.80;;;;;;;;;;4990092;28;20224;-60
2022/11/06 07:44:07;;;;;;;7.47;2.10;;;;;;;;;;4994064;28;20211;-61
2022/11/06 07:46:32;;;;;;;7.47;2.03;;;;;;;;;;5005147;28;20278;-61
2022/11/06 07:48:58;;;;;;;9.23;2.65;;;;;;;;;;5002772;28;20437;-62
2022/11/06 07:51:23;;;;;;;9.02;1.98;;;;;;;;;;5003556;28;20212;-62
2022/11/06 07:53:48;;;;;;;7.80;2.10;;;;;;;;;;5004399;28;20593;-62
2022/11/06 07:56:14;;;;;;;8.98;2.10;;;;;;;;;;5002870;28;20209;-62
2022/11/06 07:58:39;;;;;;;7.38;1.88;;;;;;;;;;5001648;28;20221;-62
2022/11/06 08:01:04;;;;;;;6.47;1.70;;;;;;;;;;5003911;28;20232;-62
2022/11/06 08:03:30;;;;;;;9.30;1.98;;;;;;;;;;5004058;28;20635;-62
2022/11/06 08:05:55;;;;;;;7.15;1.92;;;;;;;;;;5007901;28;20665;-62
2022/11/06 08:08:21;;;;;;;5.60;1.80;;;;;;;;;;5003060;28;20232;-62
2022/11/06 08:10:46;;;;;;;6.57;1.80;;;;;;;;;;5001500;28;20205;-62
2022/11/06 08:13:12;;;;;;;8.20;1.80;;;;;;;;;;5003229;28;20742;-62
2022/11/06 08:15:37;;;;;;;6.25;1.40;;;;;;;;;;5004260;28;20207;-62
2022/11/06 08:18:03;;;;;;;7.10;2.03;;;;;;;;;;5013270;28;20440;-62
2022/11/06 08:20:28;;;;;;;6.45;1.88;;;;;;;;;;5006700;28;20340;-62
2022/11/06 08:22:57;;;;;;;9.80;1.88;;;;;;;;;;5005771;28;20261;-62
2022/11/06 08:25:22;;;;;;;9.80;1.70;;;;;;;;;;5010308;28;20212;-62
2022/11/06 08:27:47;;;;;;;8.88;2.60;;;;;;;;;;5015531;28;20254;-62
2022/11/06 08:30:12;;;;;;;5.05;1.55;;;;;;;;;;5014824;28;20250;-61
2022/11/06 08:32:38;;;;;;;4.88;1.63;;;;;;;;;;5014110;28;20579;-62
2022/11/06 08:35:03;;;;;;;5.43;1.50;;;;;;;;;;5011693;28;20204;-62
2022/11/06 08:37:28;;;;;;;6.60;2.08;;;;;;;;;;5014880;28;20212;-62
2022/11/06 08:39:54;;;;;;;8.65;1.50;;;;;;;;;;5016129;28;20547;-62
2022/11/06 08:42:19;;;;;;;5.35;1.63;;;;;;;;;;5016900;28;20215;-62
2022/11/06 08:44:44;;;;;;;6.32;1.40;;;;;;;;;;5015236;28;20242;-62
2022/11/06 08:47:10;;;;;;;8.23;1.80;;;;;;;;;;5014561;28;20220;-62
2022/11/06 08:49:35;;;;;;;7.63;1.77;;;;;;;;;;5017203;28;20216;-62
2022/11/06 08:52:00;;;;;;;8.02;1.55;;;;;;;;;;5015802;28;20204;-62
2022/11/06 08:54:26;;;;;;;7.15;1.48;;;;;;;;;;5015718;28;20223;-62
2022/11/06 08:56:51;;;;;;;7.90;1.75;;;;;;;;;;5017259;28;20204;-62
2022/11/06 08:59:16;;;;;;;6.35;1.55;;;;;;;;;;5014546;28;20217;-62
2022/11/06 09:01:41;;;;;;;7.03;2.60;;;;;;;;;;5016396;28;20455;-62
2022/11/06 09:04:07;;;;;;;7.05;1.90;;;;;;;;;;5014677;28;20274;-62
2022/11/06 09:06:32;;;;;;;6.03;1.73;;;;;;;;;;5012987;28;20216;-62
2022/11/06 09:08:58;;;;;;;6.43;1.95;;;;;;;;;;5013328;28;20557;-62
2022/11/06 09:11:23;;;;;;;7.65;1.63;;;;;;;;;;5013019;28;20764;-62
2022/11/06 09:13:48;;;;;;;9.73;1.92;;;;;;;;;;5012673;28;20235;-62
2022/11/06 09:16:14;;;;;;;8.60;2.20;;;;;;;;;;5014033;28;20555;-62
2022/11/06 09:18:39;;;;;;;7.57;1.75;;;;;;;;;;5012575;28;20216;-62
2022/11/06 09:21:04;;;;;;;8.10;1.85;;;;;;;;;;5013608;28;20200;-62
2022/11/06 09:23:29;;;;;;;5.47;1.67;;;;;;;;;;5013246;28;20215;-62
2022/11/06 09:25:55;;;;;;;5.60;1.90;;;;;;;;;;5012783;28;20246;-62
2022/11/06 09:28:21;;;;;;;9.25;1.98;;;;;;;;;;5012821;28;20682;-62
2022/11/06 09:30:46;;;;;;;8.27;1.70;;;;;;;;;;5014146;28;20220;-62
2022/11/06 09:33:12;;;;;;;9.02;1.80;;;;;;;;;;5013830;28;20196;-62
2022/11/06 09:35:37;;;;;;;9.45;2.25;;;;;;;;;;5017722;28;20255;-61
2022/11/06 09:38:02;;;;;;;6.30;1.50;;;;;;;;;;5019940;28;20620;-61
2022/11/06 09:40:30;;;;;;;9.07;1.75;;;;;;;;;;5018909;28;20731;-62
2022/11/06 09:42:58;;;;;;;8.43;2.10;;;;;;;;;;5014782;28;20295;-62
2022/11/06 09:45:25;;;;;;;10.23;3.08;;;;;;;;;;5033550;28;20270;-62
2022/11/06 09:47:53;;;;;;;8.70;2.35;;;;;;;;;;5033468;28;20222;-61
2022/11/06 09:50:19;;;;;;;8.82;2.63;;;;;;;;;;5045018;28;20234;-62
2022/11/06 09:52:52;;;;;;;8.63;2.08;;;;;;;;;;5049613;28;20207;-62
2022/11/06 09:55:17;;;;;;;5.18;1.42;;;;;;;;;;5054342;28;20215;-62
2022/11/06 09:57:43;;;;;;;8.85;1.67;;;;;;;;;;5029759;28;20208;-62
2022/11/06 10:00:11;;;;;;;7.28;1.83;;;;;;;;;;5027406;28;20243;-61
2022/11/06 10:02:44;;;;;;;5.50;1.58;;;;;;;;;;5036700;28;20224;-62
2022/11/06 10:05:10;;;;;;;7.60;2.00;;;;;;;;;;5029926;28;20225;-62
2022/11/06 10:07:35;;;;;;;6.70;1.73;;;;;;;;;;5050852;28;20275;-62
2022/11/06 10:10:01;;;;;;;7.45;1.90;;;;;;;;;;5052112;28;20570;-62
2022/11/06 10:12:34;;;;;;;9.50;1.67;;;;;;;;;;5051893;28;20290;-62
2022/11/06 10:15:07;;;;;;;7.82;1.55;;;;;;;;;;5009263;28;20212;-62
2022/11/06 10:17:39;;;;;;;7.53;1.50;;;;;;;;;;5004939;28;20216;-63
2022/11/06 10:20:12;;;;;;;7.82;2.15;;;;;;;;;;4980701;28;20614;-62
2022/11/06 10:22:39;;;;;;;8.30;1.70;;;;;;;;;;5017549;28;20231;-62
2022/11/06 10:25:15;;;;;;;7.88;1.83;;;;;;;;;;5030659;28;20287;-62
2022/11/06 10:27:40;;;;;;;5.25;1.35;;;;;;;;;;5033679;28;20353;-62
2022/11/06 10:30:12;;;;;;;8.23;1.77;;;;;;;;;;5031133;28;20291;-63
2022/11/06 10:32:38;;;;;;;8.18;1.60;;;;;;;;;;5013962;28;20215;-62
2022/11/06 10:35:07;;;;;;;5.95;1.50;;;;;;;;;;5010240;28;20216;-62
2022/11/06 10:37:34;;;;;;;6.82;1.60;;;;;;;;;;5010754;28;20727;-63
2022/11/06 10:40:00;;;;;;;5.63;1.50;;;;;;;;;;4996800;28;20211;-62
2022/11/06 10:42:29;;;;;;;6.35;1.50;;;;;;;;;;5006649;28;20204;-62
2022/11/06 10:45:01;;;;;;;6.50;1.80;;;;;;;;;;5022148;28;20215;-62
2022/11/06 10:47:31;;;;;;;7.63;1.50;;;;;;;;;;4998017;28;20897;-61
2022/11/06 10:49:57;;;;;;;6.57;1.48;;;;;;;;;;5022904;28;20214;-61
2022/11/06 10:52:22;;;;;;;6.97;1.30;;;;;;;;;;5002206;28;20756;-61
2022/11/06 10:54:55;;;;;;;8.35;1.90;;;;;;;;;;5018220;28;20775;-62
2022/11/06 10:57:27;;;;;;;7.28;1.55;;;;;;;;;;5015370;28;20232;-62
2022/11/06 10:59:52;;;;;;;3.95;1.45;;;;;;;;;;5016148;28;20232;-62
2022/11/06 11:02:22;;;;;;;6.38;1.20;;;;;;;;;;5016735;28;20250;-62
2022/11/06 11:04:47;;;;;;;7.65;2.03;;;;;;;;;;5004642;28;20208;-61
2022/11/06 11:07:13;;;;;;;6.47;1.40;;;;;;;;;;5021679;28;20222;-61
2022/11/06 11:09:39;;;;;;;5.53;1.80;;;;;;;;;;5018702;28;20786;-61
2022/11/06 11:12:04;;;;;;;5.85;1.20;;;;;;;;;;5021934;28;20254;-62
2022/11/06 11:14:30;;;;;;;4.18;1.20;;;;;;;;;;5017668;28;20246;-61
2022/11/06 11:16:58;;;;;;;7.82;1.55;;;;;;;;;;5022282;28;20212;-63
2022/11/06 11:19:24;;;;;;;5.10;1.50;;;;;;;;;;5012765;28;20672;-63
2022/11/06 11:21:51;;;;;;;6.85;1.55;;;;;;;;;;5015857;28;20219;-62
2022/11/06 11:24:16;;;;;;;7.28;1.60;;;;;;;;;;5016902;28;20223;-62
2022/11/06 11:26:42;;;;;;;6.28;1.80;;;;;;;;;;5018883;28;20216;-62
2022/11/06 11:29:15;;;;;;;5.05;1.33;;;;;;;;;;5003886;28;20220;-62
2022/11/06 11:31:43;;;;;;;6.95;1.67;;;;;;;;;;5021976;28;20212;-62
2022/11/06 11:34:14;;;;;;;7.75;1.42;;;;;;;;;;5021345;28;20208;-63
2022/11/06 11:36:46;;;;;;;4.25;1.40;;;;;;;;;;5005305;28;20778;-62
2022/11/06 11:39:12;;;;;;;9.52;2.38;;;;;;;;;;5021665;28;20299;-63
2022/11/06 11:41:37;;;;;;;4.35;1.20;;;;;;;;;;5012791;28;20210;-62
2022/11/06 11:44:05;;;;;;;7.97;1.58;;;;;;;;;;5013521;28;20228;-62
2022/11/06 11:46:30;;;;;;;8.32;1.48;;;;;;;;;;5011662;28;20216;-62
2022/11/06 11:48:56;;;;;;;7.68;1.70;;;;;;;;;;5021503;28;20220;-63
2022/11/06 11:51:28;;;;;;;7.38;1.65;;;;;;;;;;5018713;28;20223;-62
2022/11/06 11:53:54;;;;;;;8.30;1.60;;;;;;;;;;5025302;28;20939;-61
2022/11/06 11:56:19;;;;;;;7.97;1.50;;;;;;;;;;5027022;28;20220;-61
2022/11/06 11:58:49;;;;;;;6.07;1.40;;;;;;;;;;5009442;28;20340;-62
2022/11/06 12:01:14;;;;;;;10.07;1.50;;;;;;;;;;5020355;28;20826;-62
2022/11/06 12:03:40;;;;;;;5.82;1.20;;;;;;;;;;5018351;28;20212;-61
2022/11/06 12:06:08;;;;;;;5.57;1.20;;;;;;;;;;5014877;28;20930;-62
2022/11/06 12:08:33;;;;;;;7.22;1.23;;;;;;;;;;4997636;28;20222;-62
2022/11/06 12:11:00;;;;;;;8.90;1.52;;;;;;;;;;5001328;28;20231;-62
2022/11/06 12:13:25;;;;;;;10.88;1.35;;;;;;;;;;5001063;28;20212;-62
2022/11/06 12:15:53;;;;;;;5.63;1.13;;;;;;;;;;5021109;28;20212;-62
2022/11/06 12:18:20;;;;;;;4.70;1.30;;;;;;;;;;5003858;28;20200;-62
2022/11/06 12:20:48;;;;;;;3.78;1.13;;;;;;;;;;5022110;28;20219;-62
2022/11/06 12:23:16;;;;;;;7.40;1.60;;;;;;;;;;5002937;28;20218;-62
2022/11/06 12:25:41;;;;;;;6.15;1.15;;;;;;;;;;5019816;28;20710;-62
2022/11/06 12:28:11;;;;;;;10.15;2.03;;;;;;;;;;5014055;28;20461;-62
2022/11/06 12:30:37;;;;;;;6.88;1.20;;;;;;;;;;5014192;28;20258;-63
2022/11/06 12:33:05;;;;;;;5.15;1.10;;;;;;;;;;5015569;28;20390;-62
2022/11/06 12:35:33;;;;;;;7.22;1.20;;;;;;;;;;5003273;28;20285;-63
2022/11/06 12:38:16;;;;;;;4.82;1.33;;;;;;;;;;5021579;28;20218;-62
2022/11/06 12:40:48;;;;;;;6.88;1.00;;;;;;;;;;5020421;28;20215;-61
2022/11/06 12:43:13;;;;;;;6.10;1.27;;;;;;;;;;5019018;28;20208;-62
2022/11/06 12:45:42;;;;;;;7.82;1.20;;;;;;;;;;5020609;28;20590;-61
2022/11/06 12:48:12;;;;;;;6.32;1.27;;;;;;;;;;5020084;28;20776;-62
2022/11/06 12:50:40;;;;;;;6.18;1.27;;;;;;;;;;5013722;28;20219;-62
2022/11/06 12:53:07;;;;;;;6.82;1.75;;;;;;;;;;4996603;28;20301;-64
2022/11/06 12:55:33;;;;;;;6.43;1.40;;;;;;;;;;5016799;28;20211;-61
2022/11/06 12:58:05;;;;;;;5.40;1.40;;;;;;;;;;5019138;28;20231;-62
2022/11/06 13:00:35;;;;;;;6.45;1.20;;;;;;;;;;5008284;28;20387;-61
2022/11/06 13:03:07;;;;;;;6.78;1.20;;;;;;;;;;4999759;28;20216;-62
2022/11/06 13:05:39;;;;;;;5.68;1.30;;;;;;;;;;5020605;28;20298;-61
2022/11/06 13:08:08;;;;;;;6.88;1.33;;;;;;;;;;5020688;28;20718;-61
2022/11/06 13:10:40;;;;;;;5.00;1.38;;;;;;;;;;5021191;28;20219;-61
2022/11/06 13:13:12;;;;;;;7.05;1.55;;;;;;;;;;4995498;28;20326;-61
2022/11/06 13:15:44;;;;;;;7.68;1.85;;;;;;;;;;5012485;28;20212;-61
2022/11/06 13:18:13;;;;;;;7.70;1.83;;;;;;;;;;5019717;28;20335;-61
2022/11/06 13:20:42;;;;;;;6.43;1.90;;;;;;;;;;5007669;28;20222;-61
2022/11/06 13:23:10;;;;;;;5.88;1.85;;;;;;;;;;5006424;28;20208;-61
2022/11/06 13:25:39;;;;;;;5.60;1.20;;;;;;;;;;5024522;28;20222;-61
2022/11/06 13:28:09;;;;;;;7.30;1.30;;;;;;;;;;5024489;28;20716;-61
2022/11/06 13:30:35;;;;;;;6.03;1.42;;;;;;;;;;5024863;28;20222;-61
2022/11/06 13:33:01;;;;;;;5.70;1.52;;;;;;;;;;5006402;28;20245;-61
2022/11/06 13:35:27;;;;;;;6.13;1.20;;;;;;;;;;4999971;28;20236;-61
2022/11/06 13:37:52;;;;;;;8.65;1.67;;;;;;;;;;5018615;28;20325;-61
2022/11/06 13:40:20;;;;;;;6.63;1.70;;;;;;;;;;5017494;28;20788;-61
2022/11/06 13:42:47;;;;;;;5.35;1.17;;;;;;;;;;5022989;28;20212;-61
2022/11/06 13:45:13;;;;;;;6.82;1.30;;;;;;;;;;5022688;28;20208;-61
2022/11/06 13:47:50;;;;;;;5.93;1.15;;;;;;;;;;5024039;28;20290;-61
2022/11/06 13:50:21;;;;;;;6.68;1.20;;;;;;;;;;5006279;28;20215;-61
2022/11/06 13:52:56;;;;;;;5.13;1.23;;;;;;;;;;5024644;28;20595;-61
2022/11/06 13:55:34;;;;;;;5.70;1.23;;;;;;;;;;5024239;28;20976;-61
2022/11/06 13:58:04;;;;;;;6.63;1.40;;;;;;;;;;5000140;28;20290;-61
2022/11/06 14:00:38;;;;;;;3.83;1.17;;;;;;;;;;5016809;28;20243;-61
2022/11/06 14:03:18;;;;;;;8.73;1.40;;;;;;;;;;5019036;28;20214;-61
2022/11/06 14:05:45;;;;;;;3.72;1.17;;;;;;;;;;5025052;28;20219;-61
2022/11/06 14:08:17;;;;;;;4.63;1.15;;;;;;;;;;5005383;28;20239;-61
2022/11/06 14:10:47;;;;;;;3.78;1.20;;;;;;;;;;5006838;28;20233;-61
2022/11/06 14:13:13;;;;;;;5.05;1.05;;;;;;;;;;5005860;28;20632;-61
2022/11/06 14:15:40;;;;;;;3.75;0.95;;;;;;;;;;5023353;28;20207;-61
2022/11/06 14:18:05;;;;;;;6.97;1.40;;;;;;;;;;5023613;28;20208;-61
2022/11/06 14:20:32;;;;;;;6.25;1.23;;;;;;;;;;4999941;28;20782;-61
2022/11/06 14:23:35;;;;;;;6.40;1.08;;;;;;;;;;5014085;28;20553;-61
2022/11/06 14:26:07;;;;;;;6.43;1.42;;;;;;;;;;5018446;28;20223;-62
2022/11/06 14:28:34;;;;;;;5.32;1.23;;;;;;;;;;5021941;28;21064;-62
2022/11/06 14:30:59;;;;;;;5.60;1.20;;;;;;;;;;5024318;28;20266;-61
2022/11/06 14:33:51;;;;;;;4.88;1.15;;;;;;;;;;5015731;28;20393;-61
2022/11/06 14:36:22;;;;;;;2.85;0.90;;;;;;;;;;5020155;28;20207;-62
2022/11/06 14:38:48;;;;;;;4.63;1.20;;;;;;;;;;5029062;28;20212;-62
2022/11/06 14:41:40;;;;;;;4.30;1.40;;;;;;;;;;5033804;28;20241;-62
2022/11/06 14:44:13;;;;;;;5.45;1.20;;;;;;;;;;5040493;28;20622;-62
2022/11/06 14:46:38;;;;;;;3.75;1.10;;;;;;;;;;5037170;28;20207;-61
2022/11/06 14:49:08;;;;;;;5.10;1.10;;;;;;;;;;5021990;28;20284;-61
2022/11/06 14:51:35;;;;;;;7.20;1.40;;;;;;;;;;5016130;28;20214;-62
2022/11/06 14:54:01;;;;;;;6.20;1.30;;;;;;;;;;5025504;28;20235;-61